createdAt,value
2022-11-09T00:00:25.377Z,15.33
2022-11-09T00:01:26.337Z,15.33
2022-11-09T00:02:26.500Z,15.35
2022-11-09T00:03:26.022Z,15.25
2022-11-09T00:04:26.334Z,15.28
2022-11-09T00:05:26.651Z,15.27
2022-11-09T00:06:27.124Z,15.35
2022-11-09T00:07:27.268Z,15.29
2022-11-09T00:08:27.619Z,15.27
2022-11-09T00:09:27.944Z,15.14
2022-11-09T00:10:28.203Z,15.24
2022-11-09T00:11:28.514Z,15.28
2022-11-09T00:12:29.963Z,15.11
2022-11-09T00:13:29.094Z,15.10
2022-11-09T00:14:29.572Z,15.09
2022-11-09T00:15:29.716Z,14.99
2022-11-09T00:16:30.034Z,15.02
2022-11-09T00:17:30.411Z,15.03
2022-11-09T00:18:30.621Z,15.00
2022-11-09T00:19:31.779Z,15.11
2022-11-09T00:20:31.327Z,15.28
2022-11-09T00:21:31.971Z,15.19
2022-11-09T00:22:31.847Z,15.24
2022-11-09T00:23:32.323Z,15.06
2022-11-09T00:24:33.348Z,15.07
2022-11-09T00:25:32.730Z,15.18
2022-11-09T00:26:33.083Z,15.06
2022-11-09T00:27:33.276Z,15.02
2022-11-09T00:28:33.570Z,15.04
2022-11-09T00:29:34.918Z,15.07
2022-11-09T00:30:34.158Z,15.00
2022-11-09T00:31:35.044Z,15.03
2022-11-09T00:32:34.845Z,15.19
2022-11-09T00:33:35.038Z,15.14
2022-11-09T00:34:37.219Z,15.00
2022-11-09T00:35:35.612Z,15.02
2022-11-09T00:36:35.918Z,15.02
2022-11-09T00:37:36.280Z,14.99
2022-11-09T00:38:36.469Z,15.09
2022-11-09T00:39:37.796Z,15.19
2022-11-09T00:40:37.047Z,15.24
2022-11-09T00:41:37.546Z,15.18
2022-11-09T00:42:37.714Z,15.18
2022-11-09T00:43:38.952Z,15.07
2022-11-09T00:44:39.457Z,15.06
2022-11-09T00:45:38.690Z,15.17
2022-11-09T00:46:39.617Z,15.17
2022-11-09T00:47:39.297Z,15.17
2022-11-09T00:48:39.605Z,15.06
2022-11-09T00:49:40.934Z,15.02
2022-11-09T00:50:40.177Z,14.94
2022-11-09T00:51:40.497Z,14.96
2022-11-09T00:52:40.837Z,14.97
2022-11-09T00:53:41.154Z,15.04
2022-11-09T00:54:42.501Z,14.94
2022-11-09T00:55:41.760Z,15.00
2022-11-09T00:56:42.065Z,14.82
2022-11-09T00:57:42.394Z,14.89
2022-11-09T00:58:42.851Z,14.94
2022-11-09T00:59:43.976Z,14.86
2022-11-09T01:00:43.387Z,14.79
2022-11-09T01:01:43.534Z,14.92
2022-11-09T01:02:43.811Z,15.09
2022-11-09T01:03:44.122Z,15.04
2022-11-09T01:04:45.383Z,14.89
2022-11-09T01:05:44.787Z,14.96
2022-11-09T01:06:45.196Z,14.91
2022-11-09T01:07:45.405Z,14.79
2022-11-09T01:08:45.594Z,14.89
2022-11-09T01:09:45.916Z,14.94
2022-11-09T01:10:47.184Z,15.02
2022-11-09T01:11:46.565Z,15.03
2022-11-09T01:12:46.889Z,15.11
2022-11-09T01:13:47.215Z,15.11
2022-11-09T01:14:47.515Z,15.18
2022-11-09T01:15:47.832Z,15.00
2022-11-09T01:16:48.145Z,15.03
2022-11-09T01:17:48.913Z,14.97
2022-11-09T01:18:48.773Z,15.06
2022-11-09T01:19:49.086Z,14.89
2022-11-09T01:20:49.400Z,15.00
2022-11-09T01:21:49.722Z,15.09
2022-11-09T01:22:50.211Z,15.03
2022-11-09T01:23:50.381Z,15.00
2022-11-09T01:24:50.879Z,14.88
2022-11-09T01:25:50.983Z,14.86
2022-11-09T01:26:51.294Z,14.85
2022-11-09T01:27:51.629Z,14.89
2022-11-09T01:28:51.934Z,14.73
2022-11-09T01:29:52.243Z,14.72
2022-11-09T01:30:52.545Z,14.60
2022-11-09T01:31:53.192Z,14.50
2022-11-09T01:32:53.248Z,14.53
2022-11-09T01:33:53.457Z,14.53
2022-11-09T01:34:53.827Z,14.51
2022-11-09T01:35:53.996Z,14.53
2022-11-09T01:36:54.307Z,14.53
2022-11-09T01:37:54.607Z,14.48
2022-11-09T01:38:54.942Z,14.58
2022-11-09T01:39:55.251Z,14.47
2022-11-09T01:40:55.557Z,14.44
2022-11-09T01:41:55.868Z,14.50
2022-11-09T01:42:56.179Z,14.53
2022-11-09T01:43:56.512Z,14.62
2022-11-09T01:44:56.817Z,14.51
2022-11-09T01:45:57.122Z,14.54
2022-11-09T01:46:57.446Z,14.53
2022-11-09T01:47:58.210Z,14.53
2022-11-09T01:48:59.075Z,14.69
2022-11-09T01:49:58.346Z,14.79
2022-11-09T01:50:58.663Z,14.63
2022-11-09T01:51:58.987Z,14.70
2022-11-09T01:52:59.297Z,14.62
2022-11-09T01:54:00.642Z,14.77
2022-11-09T01:54:59.920Z,14.78
2022-11-09T01:56:00.128Z,14.79
2022-11-09T01:57:00.793Z,14.88
2022-11-09T01:58:00.850Z,14.96
2022-11-09T01:59:02.022Z,14.88
2022-11-09T02:00:01.284Z,14.84
2022-11-09T02:01:01.709Z,14.89
2022-11-09T02:02:02.304Z,15.00
2022-11-09T02:03:02.162Z,15.04
2022-11-09T02:04:03.267Z,15.04
2022-11-09T02:05:02.758Z,15.04
2022-11-09T02:06:03.089Z,15.10
2022-11-09T02:07:03.443Z,15.14
2022-11-09T02:08:03.710Z,15.06
2022-11-09T02:09:05.028Z,15.11
2022-11-09T02:10:04.256Z,15.06
2022-11-09T02:11:05.545Z,15.15
2022-11-09T02:12:04.818Z,15.09
2022-11-09T02:13:05.107Z,15.06
2022-11-09T02:14:06.472Z,14.97
2022-11-09T02:15:07.196Z,15.10
2022-11-09T02:16:06.077Z,15.06
2022-11-09T02:17:06.409Z,15.22
2022-11-09T02:18:06.719Z,15.27
2022-11-09T02:19:07.998Z,15.10
2022-11-09T02:20:07.249Z,15.25
2022-11-09T02:21:07.586Z,15.21
2022-11-09T02:22:07.891Z,15.10
2022-11-09T02:23:08.232Z,15.06
2022-11-09T02:24:08.636Z,15.06
2022-11-09T02:25:08.834Z,15.14
2022-11-09T02:26:09.176Z,15.14
2022-11-09T02:27:09.495Z,15.14
2022-11-09T02:28:09.758Z,15.09
2022-11-09T02:29:11.048Z,15.07
2022-11-09T02:30:10.410Z,15.07
2022-11-09T02:31:11.247Z,15.17
2022-11-09T02:32:11.325Z,15.03
2022-11-09T02:33:11.308Z,15.14
2022-11-09T02:34:12.419Z,15.11
2022-11-09T02:35:11.908Z,15.18
2022-11-09T02:36:12.253Z,15.21
2022-11-09T02:37:12.572Z,15.02
2022-11-09T02:38:12.878Z,15.09
2022-11-09T02:39:13.984Z,15.27
2022-11-09T02:40:13.479Z,15.02
2022-11-09T02:41:13.808Z,15.03
2022-11-09T02:42:19.889Z,15.07
2022-11-09T02:43:15.606Z,15.10
2022-11-09T02:44:14.841Z,15.02
2022-11-09T02:45:15.085Z,14.94
2022-11-09T02:46:15.439Z,15.03
2022-11-09T02:47:15.629Z,15.17
2022-11-09T02:48:15.936Z,15.15
2022-11-09T02:49:17.222Z,15.07
2022-11-09T02:50:16.589Z,15.04
2022-11-09T02:51:18.895Z,15.00
2022-11-09T02:52:17.156Z,15.10
2022-11-09T02:53:17.746Z,15.07
2022-11-09T02:54:18.945Z,15.04
2022-11-09T02:55:17.957Z,15.14
2022-11-09T02:56:19.277Z,15.31
2022-11-09T02:57:18.712Z,15.36
2022-11-09T02:58:18.851Z,15.14
2022-11-09T02:59:20.153Z,15.06
2022-11-09T03:00:19.404Z,15.09
2022-11-09T03:01:19.942Z,15.03
2022-11-09T03:02:19.947Z,14.91
2022-11-09T03:03:20.576Z,14.92
2022-11-09T03:04:21.316Z,14.99
2022-11-09T03:05:20.802Z,14.94
2022-11-09T03:06:21.887Z,14.92
2022-11-09T03:07:21.439Z,15.02
2022-11-09T03:08:23.086Z,14.92
2022-11-09T03:09:22.963Z,15.02
2022-11-09T03:10:22.203Z,15.02
2022-11-09T03:11:22.528Z,14.99
2022-11-09T03:12:22.838Z,15.09
2022-11-09T03:13:23.147Z,15.06
2022-11-09T03:14:24.985Z,14.92
2022-11-09T03:15:23.744Z,15.00
2022-11-09T03:16:24.053Z,14.97
2022-11-09T03:17:24.365Z,15.03
2022-11-09T03:18:24.680Z,15.04
2022-11-09T03:19:25.763Z,15.09
2022-11-09T03:20:25.254Z,15.10
2022-11-09T03:21:25.955Z,15.11
2022-11-09T03:22:25.809Z,15.11
2022-11-09T03:23:26.133Z,15.07
2022-11-09T03:24:27.347Z,15.14
2022-11-09T03:25:27.035Z,15.11
2022-11-09T03:26:27.003Z,15.22
2022-11-09T03:27:27.314Z,15.21
2022-11-09T03:28:27.613Z,15.18
2022-11-09T03:29:28.917Z,15.14
2022-11-09T03:30:28.168Z,15.33
2022-11-09T03:31:29.728Z,15.18
2022-11-09T03:32:28.738Z,15.27
2022-11-09T03:33:29.104Z,15.33
2022-11-09T03:34:30.294Z,15.28
2022-11-09T03:35:29.549Z,15.33
2022-11-09T03:36:29.868Z,15.35
2022-11-09T03:37:30.293Z,15.37
2022-11-09T03:38:30.446Z,15.43
2022-11-09T03:39:31.777Z,15.36
2022-11-09T03:40:31.023Z,15.37
2022-11-09T03:41:31.338Z,15.42
2022-11-09T03:42:31.890Z,15.37
2022-11-09T03:43:31.918Z,15.29
2022-11-09T03:44:33.254Z,15.37
2022-11-09T03:45:32.505Z,15.40
2022-11-09T03:46:32.815Z,15.29
2022-11-09T03:47:33.159Z,15.17
2022-11-09T03:48:33.466Z,15.18
2022-11-09T03:49:34.659Z,15.15
2022-11-09T03:50:34.207Z,15.17
2022-11-09T03:51:34.353Z,15.07
2022-11-09T03:52:34.688Z,15.24
2022-11-09T03:53:35.002Z,15.18
2022-11-09T03:54:36.315Z,15.25
2022-11-09T03:55:35.567Z,15.27
2022-11-09T03:56:36.151Z,15.31
2022-11-09T03:57:36.189Z,15.27
2022-11-09T03:58:36.531Z,15.15
2022-11-09T03:59:37.801Z,15.19
2022-11-09T04:00:37.163Z,15.17
2022-11-09T04:01:37.569Z,15.21
2022-11-09T04:02:37.747Z,15.09
2022-11-09T04:03:38.083Z,15.24
2022-11-09T04:04:38.450Z,15.11
2022-11-09T04:05:38.933Z,15.14
2022-11-09T04:06:38.973Z,15.11
2022-11-09T04:07:39.291Z,15.14
2022-11-09T04:08:39.488Z,15.07
2022-11-09T04:09:40.782Z,15.14
2022-11-09T04:10:40.155Z,15.18
2022-11-09T04:11:40.461Z,15.04
2022-11-09T04:12:40.789Z,15.02
2022-11-09T04:13:41.124Z,15.06
2022-11-09T04:14:42.405Z,15.03
2022-11-09T04:15:41.799Z,15.00
2022-11-09T04:16:42.113Z,15.03
2022-11-09T04:17:42.436Z,14.92
2022-11-09T04:18:42.774Z,14.91
2022-11-09T04:19:44.116Z,14.92
2022-11-09T04:20:43.423Z,14.96
2022-11-09T04:21:43.739Z,14.96
2022-11-09T04:22:43.881Z,15.02
2022-11-09T04:23:44.195Z,14.92
2022-11-09T04:24:44.531Z,14.77
2022-11-09T04:25:44.849Z,14.79
2022-11-09T04:26:45.154Z,14.78
2022-11-09T04:27:45.465Z,14.69
2022-11-09T04:28:45.771Z,14.70
2022-11-09T04:29:46.119Z,14.68
2022-11-09T04:30:46.818Z,14.66
2022-11-09T04:31:46.679Z,14.70
2022-11-09T04:32:47.128Z,14.62
2022-11-09T04:33:47.269Z,14.68
2022-11-09T04:34:47.620Z,14.69
2022-11-09T04:35:47.810Z,14.65
2022-11-09T04:36:48.187Z,14.65
2022-11-09T04:37:48.367Z,14.60
2022-11-09T04:38:48.715Z,14.65
2022-11-09T04:39:49.850Z,14.66
2022-11-09T04:40:49.227Z,14.65
2022-11-09T04:41:49.553Z,14.69
2022-11-09T04:42:49.866Z,14.69
2022-11-09T04:43:50.178Z,14.59
2022-11-09T04:44:51.480Z,14.58
2022-11-09T04:45:50.759Z,14.62
2022-11-09T04:46:50.963Z,14.73
2022-11-09T04:47:51.399Z,14.70
2022-11-09T04:48:51.538Z,14.66
2022-11-09T04:49:52.843Z,14.66
2022-11-09T04:50:52.124Z,14.72
2022-11-09T04:51:52.332Z,14.73
2022-11-09T04:52:52.643Z,14.78
2022-11-09T04:53:52.947Z,14.85
2022-11-09T04:54:54.241Z,14.88
2022-11-09T04:55:53.802Z,14.85
2022-11-09T04:56:53.789Z,14.84
2022-11-09T04:57:54.102Z,14.88
2022-11-09T04:58:54.418Z,14.72
2022-11-09T04:59:55.719Z,14.79
2022-11-09T05:00:55.092Z,14.88
2022-11-09T05:01:55.404Z,14.78
2022-11-09T05:02:55.715Z,14.66
2022-11-09T05:03:56.063Z,14.63
2022-11-09T05:04:57.314Z,14.69
2022-11-09T05:05:56.714Z,14.77
2022-11-09T05:06:57.150Z,14.70
2022-11-09T05:07:57.303Z,14.79
2022-11-09T05:08:57.629Z,14.73
2022-11-09T05:09:58.979Z,14.78
2022-11-09T05:10:58.259Z,14.77
2022-11-09T05:11:58.570Z,14.84
2022-11-09T05:12:59.717Z,14.82
2022-11-09T05:13:59.255Z,14.88
2022-11-09T05:15:00.324Z,14.85
2022-11-09T05:15:59.807Z,14.94
2022-11-09T05:17:00.120Z,14.86
2022-11-09T05:18:00.446Z,14.85
2022-11-09T05:19:00.762Z,14.73
2022-11-09T05:20:01.858Z,14.84
2022-11-09T05:21:01.381Z,14.88
2022-11-09T05:22:02.247Z,14.89
2022-11-09T05:23:01.973Z,14.85
2022-11-09T05:24:02.667Z,14.82
2022-11-09T05:25:04.141Z,14.79
2022-11-09T05:26:02.805Z,14.88
2022-11-09T05:27:03.116Z,14.84
2022-11-09T05:28:03.432Z,14.92
2022-11-09T05:29:03.726Z,14.88
2022-11-09T05:30:04.993Z,14.96
2022-11-09T05:31:04.411Z,14.73
2022-11-09T05:32:06.083Z,14.73
2022-11-09T05:33:04.967Z,14.81
2022-11-09T05:34:05.272Z,14.89
2022-11-09T05:35:06.614Z,15.00
2022-11-09T05:36:05.858Z,14.91
2022-11-09T05:37:06.175Z,14.99
2022-11-09T05:38:06.500Z,14.96
2022-11-09T05:39:06.921Z,14.94
2022-11-09T05:40:07.875Z,14.91
2022-11-09T05:41:07.478Z,14.89
2022-11-09T05:42:08.450Z,14.94
2022-11-09T05:43:08.865Z,15.02
2022-11-09T05:44:08.522Z,14.89
2022-11-09T05:45:40.326Z,15.03
2022-11-09T05:46:09.735Z,15.06
2022-11-09T05:47:09.152Z,15.10
2022-11-09T05:48:09.529Z,15.04
2022-11-09T05:49:09.589Z,14.96
2022-11-09T05:50:10.789Z,15.03
2022-11-09T05:51:10.031Z,14.86
2022-11-09T05:52:10.356Z,14.89
2022-11-09T05:53:10.676Z,14.79
2022-11-09T05:54:10.991Z,14.94
2022-11-09T05:55:12.317Z,14.88
2022-11-09T05:56:11.562Z,14.84
2022-11-09T05:57:11.874Z,14.86
2022-11-09T05:58:12.572Z,14.79
2022-11-09T05:59:12.430Z,14.73
2022-11-09T06:00:13.782Z,14.86
2022-11-09T06:01:13.063Z,14.82
2022-11-09T06:02:13.820Z,14.65
2022-11-09T06:03:13.637Z,14.65
2022-11-09T06:04:14.034Z,14.65
2022-11-09T06:05:15.205Z,14.65
2022-11-09T06:06:14.686Z,14.55
2022-11-09T06:07:14.803Z,14.63
2022-11-09T06:08:14.943Z,14.70
2022-11-09T06:09:15.253Z,14.54
2022-11-09T06:10:16.575Z,14.47
2022-11-09T06:11:23.259Z,14.54
2022-11-09T06:12:17.176Z,14.53
2022-11-09T06:13:16.554Z,14.41
2022-11-09T06:14:16.715Z,14.50
2022-11-09T06:15:18.025Z,14.58
2022-11-09T06:16:17.296Z,14.54
2022-11-09T06:17:17.633Z,14.44
2022-11-09T06:18:17.961Z,14.43
2022-11-09T06:19:18.288Z,14.45
2022-11-09T06:20:19.397Z,14.28
2022-11-09T06:21:19.394Z,14.37
2022-11-09T06:22:19.486Z,14.36
2022-11-09T06:23:19.634Z,14.40
2022-11-09T06:24:19.774Z,14.33
2022-11-09T06:25:20.965Z,14.41
2022-11-09T06:26:21.127Z,14.18
2022-11-09T06:27:20.506Z,14.29
2022-11-09T06:28:21.698Z,14.20
2022-11-09T06:29:22.115Z,14.20
2022-11-09T06:30:21.456Z,14.28
2022-11-09T06:31:22.692Z,14.29
2022-11-09T06:32:21.964Z,14.28
2022-11-09T06:33:23.239Z,14.29
2022-11-09T06:34:22.568Z,14.32
2022-11-09T06:35:23.841Z,14.12
2022-11-09T06:36:23.454Z,14.18
2022-11-09T06:37:24.419Z,14.11
2022-11-09T06:38:24.833Z,14.10
2022-11-09T06:39:24.149Z,14.11
2022-11-09T06:40:24.897Z,14.22
2022-11-09T06:41:25.572Z,14.18
2022-11-09T06:42:25.096Z,14.15
2022-11-09T06:43:26.147Z,14.05
2022-11-09T06:44:25.573Z,13.90
2022-11-09T06:45:26.078Z,13.99
2022-11-09T06:46:26.251Z,14.08
2022-11-09T06:47:26.638Z,14.00
2022-11-09T06:48:26.708Z,14.04
2022-11-09T06:49:27.065Z,13.99
2022-11-09T06:50:27.331Z,13.95
2022-11-09T06:51:27.560Z,14.04
2022-11-09T06:52:27.878Z,14.00
2022-11-09T06:53:28.100Z,14.03
2022-11-09T06:54:28.441Z,14.10
2022-11-09T06:55:28.792Z,14.11
2022-11-09T06:56:29.446Z,14.10
2022-11-09T06:57:29.479Z,14.12
2022-11-09T06:58:29.703Z,14.12
2022-11-09T06:59:30.042Z,14.15
2022-11-09T07:00:30.381Z,14.12
2022-11-09T07:01:30.785Z,14.08
2022-11-09T07:02:30.976Z,14.05
2022-11-09T07:03:31.254Z,13.99
2022-11-09T07:04:31.494Z,14.12
2022-11-09T07:05:31.719Z,14.14
2022-11-09T07:06:31.982Z,14.03
2022-11-09T07:07:32.201Z,14.05
2022-11-09T07:08:32.422Z,14.10
2022-11-09T07:09:32.779Z,14.17
2022-11-09T07:10:33.006Z,14.05
2022-11-09T07:11:33.364Z,14.17
2022-11-09T07:12:33.614Z,14.14
2022-11-09T07:13:33.835Z,14.11
2022-11-09T07:14:34.062Z,14.07
2022-11-09T07:15:34.306Z,14.04
2022-11-09T07:16:34.532Z,14.00
2022-11-09T07:17:34.789Z,14.14
2022-11-09T07:18:35.013Z,14.07
2022-11-09T07:19:35.454Z,14.10
2022-11-09T07:20:35.577Z,14.12
2022-11-09T07:21:36.771Z,14.03
2022-11-09T07:22:36.053Z,13.97
2022-11-09T07:23:37.154Z,13.99
2022-11-09T07:24:36.572Z,13.99
2022-11-09T07:25:37.776Z,14.00
2022-11-09T07:26:37.055Z,13.89
2022-11-09T07:27:37.292Z,13.97
2022-11-09T07:28:37.537Z,13.95
2022-11-09T07:29:37.824Z,13.93
2022-11-09T07:30:39.049Z,13.93
2022-11-09T07:31:38.607Z,13.99
2022-11-09T07:33:08.835Z,14.05
2022-11-09T07:33:40.017Z,14.32
2022-11-09T07:34:39.319Z,14.50
2022-11-09T07:35:39.614Z,14.66
2022-11-09T07:36:41.311Z,14.73
2022-11-09T07:37:40.105Z,14.99
2022-11-09T07:38:40.806Z,15.10
2022-11-09T07:39:40.589Z,15.27
2022-11-09T07:40:41.789Z,15.15
2022-11-09T07:41:41.088Z,15.10
2022-11-09T07:42:41.320Z,15.02
2022-11-09T07:43:41.589Z,15.25
2022-11-09T07:44:41.812Z,15.17
2022-11-09T07:45:43.013Z,15.29
2022-11-09T07:46:42.468Z,15.49
2022-11-09T07:47:42.529Z,15.43
2022-11-09T07:48:42.776Z,15.65
2022-11-09T07:49:43.012Z,15.70
2022-11-09T07:50:43.319Z,15.68
2022-11-09T07:51:43.550Z,15.72
2022-11-09T07:52:43.773Z,15.76
2022-11-09T07:53:44.181Z,15.98
2022-11-09T07:54:48.269Z,16.02
2022-11-09T07:55:46.631Z,15.80
2022-11-09T07:56:44.932Z,16.04
2022-11-09T07:57:45.193Z,16.13
2022-11-09T07:58:45.420Z,15.79
2022-11-09T07:59:46.029Z,16.02
2022-11-09T08:00:46.920Z,16.15
2022-11-09T08:01:47.152Z,16.05
2022-11-09T08:02:46.433Z,15.94
2022-11-09T08:03:47.024Z,15.94
2022-11-09T08:04:46.918Z,15.94
2022-11-09T08:05:47.296Z,15.52
2022-11-09T08:06:47.543Z,15.51
2022-11-09T08:07:47.768Z,15.67
2022-11-09T08:08:48.043Z,15.94
2022-11-09T08:09:48.300Z,15.95
2022-11-09T08:10:48.611Z,15.90
2022-11-09T08:11:48.861Z,15.76
2022-11-09T08:12:49.132Z,15.91
2022-11-09T08:13:49.383Z,15.95
2022-11-09T08:14:49.780Z,15.94
2022-11-09T08:15:50.854Z,15.80
2022-11-09T08:16:50.143Z,15.88
2022-11-09T08:17:50.366Z,15.76
2022-11-09T08:18:50.589Z,15.59
2022-11-09T08:19:50.967Z,15.40
2022-11-09T08:20:52.673Z,15.11
2022-11-09T08:21:51.495Z,15.07
2022-11-09T08:22:51.720Z,15.24
2022-11-09T08:23:51.958Z,15.27
2022-11-09T08:24:52.211Z,15.25
2022-11-09T08:25:52.910Z,15.22
2022-11-09T08:26:52.705Z,15.18
2022-11-09T08:27:52.946Z,15.42
2022-11-09T08:28:53.184Z,15.47
2022-11-09T08:29:53.478Z,15.47
2022-11-09T08:30:54.531Z,15.49
2022-11-09T08:31:53.954Z,15.54
2022-11-09T08:32:54.197Z,15.51
2022-11-09T08:33:54.468Z,15.52
2022-11-09T08:34:54.714Z,15.61
2022-11-09T08:35:56.001Z,15.79
2022-11-09T08:36:55.365Z,15.72
2022-11-09T08:37:55.833Z,15.62
2022-11-09T08:38:55.935Z,15.67
2022-11-09T08:39:56.485Z,15.57
2022-11-09T08:40:56.395Z,15.51
2022-11-09T08:41:57.569Z,15.25
2022-11-09T08:42:56.856Z,15.35
2022-11-09T08:43:57.342Z,15.37
2022-11-09T08:44:57.425Z,15.29
2022-11-09T08:45:57.997Z,15.27
2022-11-09T08:46:59.042Z,15.22
2022-11-09T08:47:59.259Z,15.19
2022-11-09T08:48:58.564Z,15.28
2022-11-09T08:49:58.967Z,15.21
2022-11-09T08:50:59.090Z,15.17
2022-11-09T08:52:00.705Z,15.27
2022-11-09T08:52:59.496Z,15.18
2022-11-09T08:53:59.756Z,15.21
2022-11-09T08:54:59.981Z,15.10
2022-11-09T08:56:00.335Z,15.19
2022-11-09T08:57:00.639Z,15.15
2022-11-09T08:58:00.883Z,15.17
2022-11-09T08:59:01.155Z,15.10
2022-11-09T09:00:01.379Z,15.03
2022-11-09T09:01:01.612Z,15.00
2022-11-09T09:02:02.878Z,15.11
2022-11-09T09:03:02.167Z,15.09
2022-11-09T09:04:02.399Z,15.04
2022-11-09T09:05:02.687Z,15.14
2022-11-09T09:06:02.915Z,15.04
2022-11-09T09:07:04.204Z,15.03
2022-11-09T09:08:03.455Z,14.99
2022-11-09T09:09:03.796Z,15.19
2022-11-09T09:10:04.172Z,15.18
2022-11-09T09:11:04.399Z,15.02
2022-11-09T09:12:05.611Z,15.09
2022-11-09T09:13:04.993Z,15.03
2022-11-09T09:14:05.243Z,15.04
2022-11-09T09:15:05.508Z,15.24
2022-11-09T09:16:05.707Z,15.11
2022-11-09T09:17:07.362Z,15.22
2022-11-09T09:18:06.294Z,15.35
2022-11-09T09:19:07.474Z,15.40
2022-11-09T09:20:06.787Z,15.29
2022-11-09T09:21:08.987Z,15.40
2022-11-09T09:22:08.687Z,15.39
2022-11-09T09:23:07.600Z,15.35
2022-11-09T09:24:07.977Z,15.35
2022-11-09T09:25:08.167Z,15.10
2022-11-09T09:26:08.785Z,15.21
2022-11-09T09:27:08.973Z,15.43
2022-11-09T09:28:09.275Z,15.46
2022-11-09T09:29:09.332Z,15.35
2022-11-09T09:30:09.896Z,15.33
2022-11-09T09:31:13.141Z,15.40
2022-11-09T09:32:12.558Z,15.44
2022-11-09T09:33:10.361Z,15.46
2022-11-09T09:34:11.520Z,15.37
2022-11-09T09:35:11.785Z,15.47
2022-11-09T09:36:11.073Z,15.39
2022-11-09T09:37:11.316Z,15.49
2022-11-09T09:38:11.549Z,15.47
2022-11-09T09:39:11.777Z,15.59
2022-11-09T09:40:13.026Z,15.55
2022-11-09T09:41:12.753Z,15.64
2022-11-09T09:42:12.536Z,15.61
2022-11-09T09:43:12.764Z,15.59
2022-11-09T09:44:12.996Z,15.58
2022-11-09T09:45:14.264Z,15.58
2022-11-09T09:46:13.566Z,15.54
2022-11-09T09:47:14.622Z,15.59
2022-11-09T09:48:14.078Z,15.62
2022-11-09T09:49:14.301Z,15.67
2022-11-09T09:50:15.600Z,15.86
2022-11-09T09:51:15.240Z,15.91
2022-11-09T09:52:15.037Z,16.01
2022-11-09T09:53:24.202Z,16.43
2022-11-09T09:54:16.551Z,16.46
2022-11-09T09:55:16.824Z,16.76
2022-11-09T09:56:16.651Z,17.16
2022-11-09T09:57:16.458Z,17.67
2022-11-09T09:58:16.807Z,17.70
2022-11-09T09:59:17.052Z,17.54
2022-11-09T10:00:18.325Z,17.01
2022-11-09T10:01:17.639Z,17.26
2022-11-09T10:02:17.900Z,17.42
2022-11-09T10:03:18.143Z,17.54
2022-11-09T10:04:18.465Z,17.68
2022-11-09T10:05:18.726Z,17.87
2022-11-09T10:06:19.968Z,17.64
2022-11-09T10:07:19.747Z,17.56
2022-11-09T10:08:19.788Z,17.83
2022-11-09T10:09:19.849Z,17.59
2022-11-09T10:10:21.121Z,17.24
2022-11-09T10:11:20.425Z,17.24
2022-11-09T10:12:20.684Z,17.39
2022-11-09T10:13:20.932Z,17.68
2022-11-09T10:14:21.170Z,17.64
2022-11-09T10:15:22.434Z,17.89
2022-11-09T10:16:21.740Z,17.79
2022-11-09T10:17:22.001Z,17.83
2022-11-09T10:18:22.516Z,17.85
2022-11-09T10:19:22.514Z,17.30
2022-11-09T10:20:22.800Z,17.33
2022-11-09T10:21:23.060Z,17.57
2022-11-09T10:22:23.390Z,17.48
2022-11-09T10:23:23.660Z,17.09
2022-11-09T10:24:23.909Z,17.31
2022-11-09T10:25:43.506Z,16.84
2022-11-09T10:26:25.419Z,16.75
2022-11-09T10:27:24.720Z,16.46
2022-11-09T10:28:24.963Z,16.32
2022-11-09T10:29:25.224Z,16.33
2022-11-09T10:30:26.370Z,16.12
2022-11-09T10:31:25.819Z,16.21
2022-11-09T10:32:26.057Z,16.21
2022-11-09T10:33:26.307Z,16.12
2022-11-09T10:34:26.579Z,16.21
2022-11-09T10:35:26.817Z,16.39
2022-11-09T10:36:27.072Z,16.29
2022-11-09T10:37:27.312Z,16.16
2022-11-09T10:38:27.561Z,16.24
2022-11-09T10:39:27.906Z,16.08
2022-11-09T10:40:28.029Z,16.10
2022-11-09T10:41:28.277Z,16.09
2022-11-09T10:42:28.521Z,16.00
2022-11-09T10:43:29.732Z,16.04
2022-11-09T10:44:29.111Z,16.01
2022-11-09T10:45:29.381Z,15.88
2022-11-09T10:46:29.620Z,15.92
2022-11-09T10:47:30.824Z,16.00
2022-11-09T10:48:30.132Z,15.94
2022-11-09T10:49:30.420Z,15.76
2022-11-09T10:50:30.667Z,15.79
2022-11-09T10:51:30.911Z,15.84
2022-11-09T10:52:31.151Z,15.90
2022-11-09T10:53:31.398Z,15.62
2022-11-09T10:54:31.662Z,15.64
2022-11-09T10:55:31.903Z,15.67
2022-11-09T10:56:37.274Z,15.80
2022-11-09T10:57:33.388Z,15.84
2022-11-09T10:58:32.737Z,15.91
2022-11-09T10:59:33.001Z,15.82
2022-11-09T11:00:33.234Z,15.70
2022-11-09T11:01:33.541Z,15.72
2022-11-09T11:02:34.824Z,15.86
2022-11-09T11:03:34.127Z,15.97
2022-11-09T11:04:34.575Z,15.92
2022-11-09T11:05:34.666Z,15.79
2022-11-09T11:06:34.940Z,15.72
2022-11-09T11:07:35.165Z,15.61
2022-11-09T11:08:35.409Z,15.67
2022-11-09T11:09:35.722Z,15.65
2022-11-09T11:10:35.967Z,15.61
2022-11-09T11:11:37.177Z,15.55
2022-11-09T11:12:36.463Z,15.76
2022-11-09T11:13:37.600Z,15.77
2022-11-09T11:14:37.089Z,15.73
2022-11-09T11:15:38.177Z,15.68
2022-11-09T11:16:38.596Z,15.64
2022-11-09T11:17:37.916Z,15.77
2022-11-09T11:18:38.173Z,15.83
2022-11-09T11:19:39.505Z,15.67
2022-11-09T11:20:38.686Z,15.90
2022-11-09T11:21:39.905Z,15.79
2022-11-09T11:22:39.261Z,15.68
2022-11-09T11:23:39.819Z,15.72
2022-11-09T11:24:40.700Z,15.77
2022-11-09T11:25:40.112Z,15.80
2022-11-09T11:26:40.332Z,15.76
2022-11-09T11:27:40.910Z,15.75
2022-11-09T11:28:40.834Z,15.98
2022-11-09T11:29:41.953Z,16.12
2022-11-09T11:30:41.398Z,16.66
2022-11-09T11:31:41.874Z,17.12
2022-11-09T11:32:45.592Z,17.11
2022-11-09T11:33:43.212Z,17.41
2022-11-09T11:35:43.844Z,17.04
2022-11-09T11:36:43.141Z,16.78
2022-11-09T11:37:43.403Z,17.01
2022-11-09T11:38:44.604Z,16.96
2022-11-09T11:39:44.836Z,16.71
2022-11-09T11:40:44.584Z,16.57
2022-11-09T11:41:44.684Z,16.51
2022-11-09T11:42:44.731Z,16.50
2022-11-09T11:43:45.061Z,16.72
2022-11-09T11:44:52.112Z,16.60
2022-11-09T11:45:46.585Z,16.29
2022-11-09T11:46:45.883Z,16.26
2022-11-09T11:47:46.121Z,16.20
2022-11-09T11:48:46.379Z,16.23
2022-11-09T11:49:47.600Z,16.36
2022-11-09T11:50:47.875Z,16.60
2022-11-09T11:51:47.179Z,16.99
2022-11-09T11:52:47.436Z,17.08
2022-11-09T11:53:47.675Z,17.42
2022-11-09T11:54:48.945Z,17.11
2022-11-09T11:55:48.218Z,16.96
2022-11-09T11:56:48.892Z,17.33
2022-11-09T11:57:48.688Z,17.82
2022-11-09T11:58:49.029Z,17.68
2022-11-09T11:59:50.087Z,17.65
2022-11-09T12:00:49.518Z,18.22
2022-11-09T12:01:49.764Z,18.59
2022-11-09T12:02:50.056Z,18.65
2022-11-09T12:03:50.886Z,18.55
2022-11-09T12:04:51.393Z,18.29
2022-11-09T12:05:50.841Z,18.13
2022-11-09T12:06:51.108Z,17.79
2022-11-09T12:07:56.079Z,18.10
2022-11-09T12:08:52.614Z,18.29
2022-11-09T12:09:52.705Z,18.34
2022-11-09T12:10:52.140Z,18.83
2022-11-09T12:11:52.670Z,19.12
2022-11-09T12:12:52.727Z,19.16
2022-11-09T12:13:52.991Z,18.52
2022-11-09T12:14:53.272Z,18.49
2022-11-09T12:15:53.508Z,18.56
2022-11-09T12:16:53.753Z,18.15
2022-11-09T12:17:54.004Z,17.74
2022-11-09T12:18:54.247Z,17.54
2022-11-09T12:19:55.445Z,17.63
2022-11-09T12:20:54.749Z,17.98
2022-11-09T12:21:55.214Z,18.08
2022-11-09T12:22:55.307Z,18.29
2022-11-09T12:23:55.561Z,17.94
2022-11-09T12:24:56.780Z,17.71
2022-11-09T12:25:56.069Z,17.60
2022-11-09T12:27:17.916Z,17.70
2022-11-09T12:27:57.553Z,17.90
2022-11-09T12:28:56.842Z,17.57
2022-11-09T12:29:57.956Z,17.87
2022-11-09T12:30:58.863Z,17.82
2022-11-09T12:31:57.662Z,17.82
2022-11-09T12:32:58.688Z,17.92
2022-11-09T12:33:58.256Z,17.45
2022-11-09T12:34:59.220Z,17.34
2022-11-09T12:35:59.865Z,17.59
2022-11-09T12:36:59.515Z,17.42
2022-11-09T12:37:59.309Z,17.68
2022-11-09T12:38:59.825Z,17.74
2022-11-09T12:39:59.786Z,17.98
2022-11-09T12:41:00.159Z,18.15
2022-11-09T12:42:00.385Z,18.16
2022-11-09T12:43:01.082Z,17.34
2022-11-09T12:44:00.875Z,17.34
2022-11-09T12:45:01.117Z,17.11
2022-11-09T12:46:02.334Z,16.94
2022-11-09T12:47:01.629Z,16.65
2022-11-09T12:48:02.884Z,16.42
2022-11-09T12:49:02.190Z,16.23
2022-11-09T12:50:02.837Z,16.10
2022-11-09T12:51:02.851Z,16.24
2022-11-09T12:52:03.107Z,16.31
2022-11-09T12:53:03.431Z,16.36
2022-11-09T12:54:03.681Z,16.02
2022-11-09T12:55:03.937Z,15.94
2022-11-09T12:56:05.669Z,15.98
2022-11-09T12:57:04.482Z,16.09